Time;durP1;ratioP1;P1;durP2;ratioP2;P2;SDS_P1;SDS_P2;PMS_P1;PMS_P2;Temp;Humidity;BMP_temperature;BMP_pressure;BME280_temperature;BME280_humidity;BME280_pressure;Samples;Min_cycle;Max_cycle;Signal;HPM_P1;HPM_P2
2023/12/06 00:03:33;;;;;;;33.13;21.75;;;;;;;;;;5058320;23;20108;-75
2023/12/06 00:05:59;;;;;;;33.10;21.77;;;;;;;;;;4935325;29;20055;-73
2023/12/06 00:08:26;;;;;;;31.40;21.10;;;;;;;;;;4930474;29;20050;-73
2023/12/06 00:10:55;;;;;;;28.98;22.15;;;;;;;;;;4909074;29;20055;-72
2023/12/06 00:13:21;;;;;;;30.25;21.65;;;;;;;;;;4911721;29;20411;-72
2023/12/06 00:15:47;;;;;;;30.52;21.45;;;;;;;;;;4928774;29;20401;-72
2023/12/06 00:18:13;;;;;;;28.25;22.50;;;;;;;;;;4897223;29;20063;-72
2023/12/06 00:20:39;;;;;;;30.65;22.83;;;;;;;;;;4927575;29;20098;-72
2023/12/06 00:23:07;;;;;;;35.40;22.38;;;;;;;;;;4926724;29;20481;-73
2023/12/06 00:25:33;;;;;;;32.03;21.73;;;;;;;;;;4929700;29;20050;-73
2023/12/06 00:28:05;;;;;;;28.67;21.27;;;;;;;;;;4928721;29;20054;-73
2023/12/06 00:30:31;;;;;;;30.13;20.92;;;;;;;;;;4932750;29;20059;-73
2023/12/06 00:33:08;;;;;;;28.02;20.55;;;;;;;;;;4924116;29;20070;-73
2023/12/06 00:35:34;;;;;;;27.25;19.27;;;;;;;;;;4928729;29;20047;-73
2023/12/06 00:38:03;;;;;;;25.50;18.60;;;;;;;;;;4927230;29;20074;-73
2023/12/06 00:40:29;;;;;;;27.02;18.52;;;;;;;;;;4927912;29;20546;-73
2023/12/06 00:42:55;;;;;;;26.98;17.67;;;;;;;;;;4926079;29;20063;-73
2023/12/06 00:45:21;;;;;;;20.98;15.90;;;;;;;;;;4925556;29;20051;-73
2023/12/06 00:47:47;;;;;;;22.17;15.50;;;;;;;;;;4926616;29;20058;-73
2023/12/06 00:50:13;;;;;;;16.58;14.50;;;;;;;;;;4928708;29;20070;-73
2023/12/06 00:52:39;;;;;;;18.63;13.60;;;;;;;;;;4892276;29;20048;-73
2023/12/06 00:55:06;;;;;;;17.25;13.32;;;;;;;;;;4893199;29;20052;-73
2023/12/06 00:57:32;;;;;;;16.38;13.35;;;;;;;;;;4926315;29;20051;-72
2023/12/06 00:59:58;;;;;;;17.42;13.93;;;;;;;;;;4911571;29;20103;-73
2023/12/06 01:02:27;;;;;;;18.85;14.38;;;;;;;;;;4910075;29;20056;-72
2023/12/06 01:04:53;;;;;;;20.05;15.18;;;;;;;;;;4909296;29;20146;-73
2023/12/06 01:07:19;;;;;;;18.55;14.48;;;;;;;;;;4926018;29;20467;-73
2023/12/06 01:09:45;;;;;;;19.35;14.35;;;;;;;;;;4911677;29;20147;-73
2023/12/06 01:12:14;;;;;;;20.35;14.85;;;;;;;;;;4914571;29;20126;-72
2023/12/06 01:14:40;;;;;;;19.50;14.68;;;;;;;;;;4915235;29;20114;-73
2023/12/06 01:17:07;;;;;;;19.58;15.07;;;;;;;;;;4912489;29;20500;-73
2023/12/06 01:19:33;;;;;;;16.13;14.45;;;;;;;;;;4899476;29;20062;-73
2023/12/06 01:21:59;;;;;;;23.52;15.15;;;;;;;;;;4916450;29;20058;-73
2023/12/06 01:24:25;;;;;;;22.35;14.98;;;;;;;;;;4916737;29;20539;-73
2023/12/06 01:26:51;;;;;;;19.40;15.57;;;;;;;;;;4916346;29;20055;-73
2023/12/06 01:29:17;;;;;;;24.42;16.33;;;;;;;;;;4914242;29;20444;-73
2023/12/06 01:31:43;;;;;;;20.02;15.90;;;;;;;;;;4915160;29;20567;-73
2023/12/06 01:34:09;;;;;;;22.30;15.77;;;;;;;;;;4898839;29;20044;-73
2023/12/06 01:36:38;;;;;;;20.50;16.38;;;;;;;;;;4911500;29;20179;-73
2023/12/06 01:39:08;;;;;;;21.05;16.50;;;;;;;;;;4928616;29;20052;-73
2023/12/06 01:41:34;;;;;;;20.13;16.08;;;;;;;;;;4928404;29;20543;-72
2023/12/06 01:44:02;;;;;;;25.73;17.10;;;;;;;;;;4925516;29;20126;-73
2023/12/06 01:46:28;;;;;;;22.45;15.68;;;;;;;;;;4927407;29;20051;-73
2023/12/06 01:48:56;;;;;;;23.23;16.45;;;;;;;;;;4926789;29;20456;-73
2023/12/06 01:51:23;;;;;;;22.90;16.17;;;;;;;;;;4932144;29;20044;-73
2023/12/06 01:53:49;;;;;;;22.65;16.98;;;;;;;;;;4933506;29;20062;-73
2023/12/06 01:56:18;;;;;;;27.27;18.60;;;;;;;;;;4915585;29;20409;-72
2023/12/06 01:58:44;;;;;;;23.65;17.95;;;;;;;;;;4916204;29;20062;-73
2023/12/06 02:01:10;;;;;;;22.58;18.23;;;;;;;;;;4931329;29;20488;-72
2023/12/06 02:03:36;;;;;;;28.55;18.15;;;;;;;;;;4897929;29;20059;-73
2023/12/06 02:06:03;;;;;;;24.67;17.38;;;;;;;;;;4931537;29;20500;-73
2023/12/06 02:08:50;;;;;;;23.50;17.90;;;;;;;;;;4916363;29;20055;-73
2023/12/06 02:11:16;;;;;;;24.65;18.80;;;;;;;;;;4914955;29;20122;-73
2023/12/06 02:13:45;;;;;;;26.48;18.55;;;;;;;;;;4930283;29;20126;-73
2023/12/06 02:16:11;;;;;;;23.65;18.83;;;;;;;;;;4913723;29;20059;-73
2023/12/06 02:18:37;;;;;;;29.27;19.50;;;;;;;;;;4911558;29;20055;-73
2023/12/06 02:21:03;;;;;;;26.77;19.20;;;;;;;;;;4914379;29;20507;-73
2023/12/06 02:23:39;;;;;;;26.13;19.70;;;;;;;;;;4911181;29;20052;-73
2023/12/06 02:26:06;;;;;;;28.98;21.17;;;;;;;;;;4914642;29;20043;-73
2023/12/06 02:28:32;;;;;;;29.35;21.08;;;;;;;;;;4930433;29;20051;-72
2023/12/06 02:30:58;;;;;;;33.60;20.40;;;;;;;;;;4914173;29;20043;-73
2023/12/06 02:33:25;;;;;;;27.02;17.42;;;;;;;;;;4913076;29;20116;-73
2023/12/06 02:36:01;;;;;;;25.80;18.65;;;;;;;;;;4914019;29;20055;-73
2023/12/06 02:38:28;;;;;;;24.15;17.90;;;;;;;;;;4909648;29;20063;-73
2023/12/06 02:40:54;;;;;;;31.58;19.88;;;;;;;;;;4933130;29;20043;-73
2023/12/06 02:43:21;;;;;;;33.55;22.15;;;;;;;;;;4915907;29;20190;-73
2023/12/06 02:45:47;;;;;;;28.27;20.30;;;;;;;;;;4910164;29;20048;-74
2023/12/06 02:48:13;;;;;;;27.15;17.45;;;;;;;;;;4916831;29;20103;-73
2023/12/06 02:50:39;;;;;;;23.75;16.08;;;;;;;;;;4916607;29;20059;-73
2023/12/06 02:53:05;;;;;;;24.58;19.48;;;;;;;;;;4929079;29;20495;-73
2023/12/06 02:55:31;;;;;;;24.38;18.58;;;;;;;;;;4911952;29;20052;-73
2023/12/06 02:57:57;;;;;;;26.80;18.25;;;;;;;;;;4926707;29;20093;-73
2023/12/06 03:00:23;;;;;;;25.58;18.45;;;;;;;;;;4908404;29;20052;-73
2023/12/06 03:02:49;;;;;;;22.77;17.63;;;;;;;;;;4912696;29;20464;-73
2023/12/06 03:05:15;;;;;;;27.73;18.95;;;;;;;;;;4910391;29;20044;-73
2023/12/06 03:07:41;;;;;;;27.17;17.83;;;;;;;;;;4896711;29;20051;-72
2023/12/06 03:10:07;;;;;;;31.48;18.58;;;;;;;;;;4913262;29;20183;-73
2023/12/06 03:12:33;;;;;;;26.65;17.20;;;;;;;;;;4905492;29;20484;-73
2023/12/06 03:14:59;;;;;;;30.10;16.88;;;;;;;;;;4910704;29;20107;-73
2023/12/06 03:17:28;;;;;;;26.33;17.85;;;;;;;;;;4911444;29;20079;-72
2023/12/06 03:19:54;;;;;;;25.75;17.25;;;;;;;;;;4923224;29;20047;-73
2023/12/06 03:22:20;;;;;;;27.80;17.50;;;;;;;;;;4912508;29;20055;-73
2023/12/06 03:24:46;;;;;;;25.23;18.50;;;;;;;;;;4906479;29;20104;-73
2023/12/06 03:27:12;;;;;;;26.65;18.90;;;;;;;;;;4910611;29;20047;-73
2023/12/06 03:29:38;;;;;;;22.92;17.85;;;;;;;;;;4928581;29;20085;-73
2023/12/06 03:32:04;;;;;;;21.45;15.07;;;;;;;;;;4910829;29;20079;-73
2023/12/06 03:34:30;;;;;;;19.33;14.90;;;;;;;;;;4910139;29;20056;-73
2023/12/06 03:36:58;;;;;;;20.52;15.88;;;;;;;;;;4911645;29;20043;-73
2023/12/06 03:39:26;;;;;;;26.55;17.45;;;;;;;;;;4915309;29;20148;-73
2023/12/06 03:41:52;;;;;;;24.80;18.75;;;;;;;;;;4912405;29;20055;-73
2023/12/06 03:44:18;;;;;;;24.63;17.13;;;;;;;;;;4928357;29;20135;-73
2023/12/06 03:46:44;;;;;;;21.30;15.68;;;;;;;;;;4916673;29;20092;-73
2023/12/06 03:49:13;;;;;;;23.50;15.20;;;;;;;;;;4897743;29;20391;-73
2023/12/06 03:51:39;;;;;;;25.40;15.02;;;;;;;;;;4913208;29;20071;-73
2023/12/06 03:54:05;;;;;;;27.85;14.88;;;;;;;;;;4916655;29;20334;-73
2023/12/06 03:56:31;;;;;;;21.15;13.93;;;;;;;;;;4912391;29;20051;-73
2023/12/06 03:58:57;;;;;;;21.15;15.07;;;;;;;;;;4916287;29;20048;-73
2023/12/06 04:01:23;;;;;;;24.13;16.00;;;;;;;;;;4911606;29;20060;-73
2023/12/06 04:03:49;;;;;;;19.00;14.05;;;;;;;;;;4912861;29;20056;-73
2023/12/06 04:06:16;;;;;;;18.13;13.07;;;;;;;;;;4912856;29;20118;-73
2023/12/06 04:08:42;;;;;;;19.02;14.65;;;;;;;;;;4934400;29;20151;-73
2023/12/06 04:11:08;;;;;;;21.63;14.15;;;;;;;;;;4928431;29;20552;-72
2023/12/06 04:13:34;;;;;;;22.10;12.40;;;;;;;;;;4915704;29;20051;-73
2023/12/06 04:16:00;;;;;;;17.92;12.13;;;;;;;;;;4912081;29;20488;-73
2023/12/06 04:18:26;;;;;;;18.45;13.48;;;;;;;;;;4928830;29;20111;-73
2023/12/06 04:20:52;;;;;;;24.95;14.02;;;;;;;;;;4912270;29;20094;-73
2023/12/06 04:23:18;;;;;;;16.80;12.80;;;;;;;;;;4932639;29;20492;-73
2023/12/06 04:25:44;;;;;;;15.10;12.00;;;;;;;;;;4914971;29;20456;-73
2023/12/06 04:28:13;;;;;;;15.10;10.50;;;;;;;;;;4910602;29;20044;-73
2023/12/06 04:30:39;;;;;;;13.75;10.07;;;;;;;;;;4913279;29;20058;-73
2023/12/06 04:33:05;;;;;;;11.65;9.48;;;;;;;;;;4915632;29;20043;-73
2023/12/06 04:35:31;;;;;;;14.32;10.25;;;;;;;;;;4913615;29;20059;-73
2023/12/06 04:37:57;;;;;;;15.30;11.48;;;;;;;;;;4914132;29;20957;-73
2023/12/06 04:40:23;;;;;;;18.05;11.48;;;;;;;;;;4932074;29;20039;-73
2023/12/06 04:42:49;;;;;;;14.23;10.88;;;;;;;;;;4913411;29;20059;-73
2023/12/06 04:45:15;;;;;;;18.10;12.18;;;;;;;;;;4895160;29;20075;-73
2023/12/06 04:47:41;;;;;;;17.33;10.80;;;;;;;;;;4911923;29;20195;-73
2023/12/06 04:50:10;;;;;;;18.95;11.63;;;;;;;;;;4912541;29;20139;-73
2023/12/06 04:52:36;;;;;;;16.73;10.25;;;;;;;;;;4928623;29;20046;-73
2023/12/06 04:55:04;;;;;;;15.88;11.48;;;;;;;;;;4909773;29;20044;-73
2023/12/06 04:57:33;;;;;;;15.50;10.60;;;;;;;;;;4914089;29;20107;-73
2023/12/06 05:00:04;;;;;;;16.02;10.85;;;;;;;;;;4928138;29;20426;-73
2023/12/06 05:02:30;;;;;;;15.93;11.05;;;;;;;;;;4930928;29;20036;-74
2023/12/06 05:04:57;;;;;;;17.00;11.77;;;;;;;;;;4910431;29;20052;-73
2023/12/06 05:07:26;;;;;;;16.30;12.50;;;;;;;;;;4911684;29;20078;-73
2023/12/06 05:09:52;;;;;;;15.98;11.95;;;;;;;;;;4929054;29;20083;-73
2023/12/06 05:12:18;;;;;;;19.10;13.00;;;;;;;;;;4929797;29;20483;-73
2023/12/06 05:14:44;;;;;;;18.42;14.95;;;;;;;;;;4928900;29;20056;-73
2023/12/06 05:17:10;;;;;;;20.77;14.60;;;;;;;;;;4912702;29;20052;-73
2023/12/06 05:19:36;;;;;;;18.83;13.23;;;;;;;;;;4896885;29;20073;-73
2023/12/06 05:22:02;;;;;;;18.60;12.77;;;;;;;;;;4914255;29;20113;-73
2023/12/06 05:24:28;;;;;;;18.00;12.75;;;;;;;;;;4912076;29;20244;-73
2023/12/06 05:26:57;;;;;;;18.20;11.15;;;;;;;;;;4897412;29;20059;-73
2023/12/06 05:29:23;;;;;;;17.70;12.25;;;;;;;;;;4925457;29;20054;-73
2023/12/06 05:31:49;;;;;;;17.58;12.90;;;;;;;;;;4909604;29;20047;-74
2023/12/06 05:34:15;;;;;;;18.33;13.15;;;;;;;;;;4912012;29;20044;-73
2023/12/06 05:36:41;;;;;;;19.58;14.00;;;;;;;;;;4914435;29;20043;-73
2023/12/06 05:39:07;;;;;;;21.17;14.80;;;;;;;;;;4914478;29;20492;-72
2023/12/06 05:41:33;;;;;;;16.98;13.85;;;;;;;;;;4907974;29;20051;-74
2023/12/06 05:43:59;;;;;;;18.75;14.45;;;;;;;;;;4911375;29;20076;-73
2023/12/06 05:46:25;;;;;;;19.75;13.90;;;;;;;;;;4925824;29;20582;-72
2023/12/06 05:48:54;;;;;;;16.67;13.25;;;;;;;;;;4926019;29;20056;-73
2023/12/06 05:51:20;;;;;;;18.02;11.90;;;;;;;;;;4910881;29;20443;-73
2023/12/06 05:53:46;;;;;;;20.67;12.57;;;;;;;;;;4909520;29;20095;-72
2023/12/06 05:56:15;;;;;;;15.05;12.38;;;;;;;;;;4910399;29;20444;-73
2023/12/06 05:58:42;;;;;;;19.05;13.95;;;;;;;;;;4913239;29;20054;-73
2023/12/06 06:01:08;;;;;;;19.27;14.07;;;;;;;;;;4906736;29;20048;-73
2023/12/06 06:03:34;;;;;;;22.30;14.45;;;;;;;;;;4908835;29;20090;-73
2023/12/06 06:06:07;;;;;;;25.63;15.30;;;;;;;;;;4892762;29;20063;-73
2023/12/06 06:08:34;;;;;;;24.77;15.95;;;;;;;;;;4914921;29;20052;-73
2023/12/06 06:11:04;;;;;;;19.67;14.70;;;;;;;;;;4927593;29;20142;-73
2023/12/06 06:13:30;;;;;;;19.38;13.98;;;;;;;;;;4908039;29;20158;-73
2023/12/06 06:15:56;;;;;;;19.60;13.50;;;;;;;;;;4925744;29;20095;-73
2023/12/06 06:18:23;;;;;;;20.63;13.80;;;;;;;;;;4912539;29;20073;-73
2023/12/06 06:20:52;;;;;;;22.13;14.10;;;;;;;;;;4927063;29;20050;-73
2023/12/06 06:23:18;;;;;;;16.33;13.30;;;;;;;;;;4928503;29;20139;-73
2023/12/06 06:25:47;;;;;;;19.67;13.98;;;;;;;;;;4909874;29;20134;-73
2023/12/06 06:28:14;;;;;;;19.55;13.05;;;;;;;;;;4913180;29;20134;-73
2023/12/06 06:30:40;;;;;;;19.45;12.90;;;;;;;;;;4908734;29;20516;-73
2023/12/06 06:33:06;;;;;;;15.35;11.63;;;;;;;;;;4912051;29;20118;-73
2023/12/06 06:35:32;;;;;;;19.63;13.80;;;;;;;;;;4926966;29;20500;-73
2023/12/06 06:37:58;;;;;;;17.55;12.38;;;;;;;;;;4909560;29;20091;-72
2023/12/06 06:40:24;;;;;;;20.98;13.73;;;;;;;;;;4925609;29;20054;-72
2023/12/06 06:42:54;;;;;;;20.58;13.68;;;;;;;;;;4894259;29;20051;-73
2023/12/06 06:45:20;;;;;;;19.92;14.35;;;;;;;;;;4928328;29;20043;-73
2023/12/06 06:47:49;;;;;;;23.85;15.57;;;;;;;;;;4930253;29;20293;-73
2023/12/06 06:50:16;;;;;;;21.17;16.50;;;;;;;;;;4911515;29;20044;-73
2023/12/06 06:52:42;;;;;;;20.75;14.10;;;;;;;;;;4910721;29;20044;-73
2023/12/06 06:55:08;;;;;;;22.92;15.27;;;;;;;;;;4930628;29;20056;-73
2023/12/06 06:57:34;;;;;;;24.25;16.90;;;;;;;;;;4909574;29;20039;-73
2023/12/06 07:00:00;;;;;;;24.17;17.20;;;;;;;;;;4907826;29;20048;-72
2023/12/06 07:02:27;;;;;;;21.23;17.10;;;;;;;;;;4905157;29;20044;-73
2023/12/06 07:04:53;;;;;;;21.13;15.18;;;;;;;;;;4908548;29;20048;-73
2023/12/06 07:07:19;;;;;;;23.10;13.70;;;;;;;;;;4908010;29;20058;-73
2023/12/06 07:09:45;;;;;;;21.42;16.17;;;;;;;;;;4927025;29;20067;-73
2023/12/06 07:12:11;;;;;;;16.67;13.57;;;;;;;;;;4926527;29;20071;-72
2023/12/06 07:14:37;;;;;;;20.85;14.20;;;;;;;;;;4916227;29;20512;-73
2023/12/06 07:17:04;;;;;;;25.10;15.32;;;;;;;;;;4914649;29;20047;-73
2023/12/06 07:19:30;;;;;;;22.33;15.25;;;;;;;;;;4915497;29;20083;-73
2023/12/06 07:21:56;;;;;;;22.13;13.93;;;;;;;;;;4917188;29;20043;-73
2023/12/06 07:27:11;;;;;;;21.98;13.60;;;;;;;;;;4908988;29;20051;-72
2023/12/06 07:29:37;;;;;;;20.02;12.80;;;;;;;;;;4931263;29;20048;-73
2023/12/06 07:32:03;;;;;;;17.75;13.13;;;;;;;;;;4917252;29;20054;-72
2023/12/06 07:34:29;;;;;;;17.98;11.70;;;;;;;;;;4915777;29;20115;-72
2023/12/06 07:36:57;;;;;;;17.60;11.35;;;;;;;;;;4933922;29;20127;-72
2023/12/06 07:39:30;;;;;;;14.73;11.45;;;;;;;;;;4935065;29;20077;-72
2023/12/06 07:41:56;;;;;;;12.77;9.02;;;;;;;;;;4915618;29;20476;-72
2023/12/06 07:44:22;;;;;;;14.15;9.85;;;;;;;;;;4914841;29;20064;-72
2023/12/06 07:46:48;;;;;;;11.48;9.98;;;;;;;;;;4916719;29;20044;-72
2023/12/06 07:49:14;;;;;;;14.38;10.32;;;;;;;;;;4918901;29;20095;-72
2023/12/06 07:51:40;;;;;;;12.90;10.15;;;;;;;;;;4914054;29;20035;-72
2023/12/06 07:54:06;;;;;;;13.23;11.30;;;;;;;;;;4901548;29;20058;-72
2023/12/06 07:56:41;;;;;;;14.35;10.82;;;;;;;;;;4916698;29;20056;-72
2023/12/06 07:59:10;;;;;;;12.90;10.45;;;;;;;;;;4934787;29;20047;-72
2023/12/06 08:01:36;;;;;;;12.55;11.23;;;;;;;;;;4916703;29;20051;-72
2023/12/06 08:04:02;;;;;;;14.68;11.40;;;;;;;;;;4936337;29;20111;-72
2023/12/06 08:06:28;;;;;;;19.85;12.32;;;;;;;;;;4933955;29;20087;-72
2023/12/06 08:08:55;;;;;;;15.05;12.30;;;;;;;;;;4911742;29;20048;-71
2023/12/06 08:11:21;;;;;;;14.82;10.90;;;;;;;;;;4916334;29;20107;-71
2023/12/06 08:13:48;;;;;;;15.82;11.95;;;;;;;;;;4915983;29;20052;-71
2023/12/06 08:16:14;;;;;;;16.30;11.20;;;;;;;;;;4916672;29;20048;-72
2023/12/06 08:18:40;;;;;;;15.15;11.75;;;;;;;;;;4909695;29;20555;-72
2023/12/06 08:21:09;;;;;;;16.58;10.77;;;;;;;;;;4917574;29;20047;-71
2023/12/06 08:23:38;;;;;;;12.35;10.00;;;;;;;;;;4930786;29;20055;-71
2023/12/06 08:26:06;;;;;;;16.73;11.10;;;;;;;;;;4916594;29;21105;-72
2023/12/06 08:28:33;;;;;;;13.65;10.77;;;;;;;;;;4930809;29;20048;-73
2023/12/06 08:30:59;;;;;;;15.10;11.43;;;;;;;;;;4907087;29;20043;-72
2023/12/06 08:33:25;;;;;;;15.30;12.35;;;;;;;;;;4914947;29;20443;-71
2023/12/06 08:35:51;;;;;;;16.67;12.02;;;;;;;;;;4915329;29;20078;-72
2023/12/06 08:38:17;;;;;;;16.10;11.00;;;;;;;;;;4931134;29;20055;-72
2023/12/06 08:40:43;;;;;;;15.30;11.80;;;;;;;;;;4916668;29;20048;-72
2023/12/06 08:43:09;;;;;;;11.77;10.57;;;;;;;;;;4935607;29;20131;-72
2023/12/06 08:45:36;;;;;;;16.77;11.07;;;;;;;;;;4915573;29;20035;-73
2023/12/06 08:48:02;;;;;;;22.20;13.07;;;;;;;;;;4915804;29;20052;-72
2023/12/06 08:50:28;;;;;;;19.50;11.75;;;;;;;;;;4912187;29;20043;-73
2023/12/06 08:52:54;;;;;;;13.00;10.73;;;;;;;;;;4917119;29;20050;-73
2023/12/06 08:55:20;;;;;;;14.65;10.60;;;;;;;;;;4916907;29;20404;-70
2023/12/06 08:57:50;;;;;;;15.77;10.57;;;;;;;;;;4916732;29;20047;-72
2023/12/06 09:00:16;;;;;;;15.05;10.40;;;;;;;;;;4910238;29;20055;-73
2023/12/06 09:02:46;;;;;;;13.95;10.88;;;;;;;;;;4915992;29;20048;-72
2023/12/06 09:05:12;;;;;;;15.63;10.68;;;;;;;;;;4914390;29;20043;-72
2023/12/06 09:07:42;;;;;;;13.27;10.32;;;;;;;;;;4913436;29;20411;-73
2023/12/06 09:10:09;;;;;;;11.55;9.00;;;;;;;;;;4917793;29;20063;-73
2023/12/06 09:12:35;;;;;;;14.43;9.32;;;;;;;;;;4931085;29;20054;-72
2023/12/06 09:15:01;;;;;;;14.98;10.05;;;;;;;;;;4915190;29;20090;-72
2023/12/06 09:17:28;;;;;;;12.10;10.05;;;;;;;;;;4932261;29;20063;-72
2023/12/06 09:19:57;;;;;;;13.88;10.10;;;;;;;;;;4932518;29;20416;-72
2023/12/06 09:22:26;;;;;;;11.05;9.77;;;;;;;;;;4914759;29;20044;-72
2023/12/06 09:24:52;;;;;;;14.45;10.32;;;;;;;;;;4932803;29;20046;-72
2023/12/06 09:27:18;;;;;;;12.68;9.75;;;;;;;;;;4914342;29;20453;-72
2023/12/06 09:29:50;;;;;;;12.80;10.43;;;;;;;;;;4912717;29;20111;-73
2023/12/06 09:32:19;;;;;;;13.95;10.02;;;;;;;;;;4911791;29;20056;-72
2023/12/06 09:34:45;;;;;;;13.77;10.07;;;;;;;;;;4916248;29;20051;-72
2023/12/06 09:37:11;;;;;;;13.80;10.23;;;;;;;;;;4932707;29;20046;-72
2023/12/06 09:39:37;;;;;;;11.20;9.48;;;;;;;;;;4903891;29;20044;-71
2023/12/06 09:42:03;;;;;;;10.20;8.23;;;;;;;;;;4931885;29;20043;-72
2023/12/06 09:44:42;;;;;;;11.68;7.93;;;;;;;;;;4909879;29;20048;-72
2023/12/06 09:47:08;;;;;;;11.05;7.95;;;;;;;;;;4910823;29;20048;-71
2023/12/06 09:49:34;;;;;;;9.98;7.85;;;;;;;;;;4913680;29;20052;-72
2023/12/06 09:52:21;;;;;;;9.93;8.40;;;;;;;;;;4912876;29;20055;-71
2023/12/06 09:54:48;;;;;;;12.23;8.82;;;;;;;;;;4924028;29;20051;-71
2023/12/06 09:57:17;;;;;;;9.13;7.18;;;;;;;;;;4908470;29;20063;-71
2023/12/06 09:59:43;;;;;;;9.20;6.57;;;;;;;;;;4893432;29;20059;-72
2023/12/06 10:02:09;;;;;;;8.40;7.15;;;;;;;;;;4909238;29;20044;-71
2023/12/06 10:04:35;;;;;;;8.68;6.57;;;;;;;;;;4891884;29;20130;-71
2023/12/06 10:07:02;;;;;;;10.35;6.35;;;;;;;;;;4913240;29;20244;-71
2023/12/06 10:09:37;;;;;;;7.05;6.10;;;;;;;;;;4911311;29;20056;-71
2023/12/06 10:12:06;;;;;;;8.45;6.85;;;;;;;;;;4911829;29;20052;-71
2023/12/06 10:14:35;;;;;;;11.57;6.22;;;;;;;;;;4912311;29;20043;-71
2023/12/06 10:17:02;;;;;;;9.35;6.15;;;;;;;;;;4909366;29;20412;-71
2023/12/06 10:19:32;;;;;;;8.93;6.35;;;;;;;;;;4895220;29;20056;-71
2023/12/06 10:22:01;;;;;;;9.30;6.55;;;;;;;;;;4910678;29;20689;-71
2023/12/06 10:24:28;;;;;;;11.45;6.63;;;;;;;;;;4911865;29;20047;-71
2023/12/06 10:27:02;;;;;;;11.38;6.75;;;;;;;;;;4931693;29;20047;-72
2023/12/06 10:29:41;;;;;;;9.90;6.13;;;;;;;;;;4913733;29;20055;-71
2023/12/06 10:32:08;;;;;;;8.32;6.15;;;;;;;;;;4923527;29;20050;-70
2023/12/06 10:34:38;;;;;;;8.77;6.50;;;;;;;;;;4929198;29;20039;-73
2023/12/06 10:37:04;;;;;;;7.20;6.25;;;;;;;;;;4914462;29;20392;-71
2023/12/06 10:39:32;;;;;;;8.15;6.03;;;;;;;;;;4931127;29;20099;-71
2023/12/06 10:42:00;;;;;;;10.45;6.30;;;;;;;;;;4903873;29;20095;-71
2023/12/06 10:44:49;;;;;;;10.38;5.63;;;;;;;;;;4914106;29;20047;-74
2023/12/06 10:47:15;;;;;;;8.65;6.20;;;;;;;;;;4892263;29;20523;-72
2023/12/06 10:49:45;;;;;;;8.23;5.90;;;;;;;;;;4924095;29;20167;-72
2023/12/06 10:52:12;;;;;;;6.82;5.65;;;;;;;;;;4915978;29;20142;-71
2023/12/06 10:54:42;;;;;;;8.23;7.28;;;;;;;;;;4929461;29;20083;-71
2023/12/06 10:57:12;;;;;;;7.40;6.60;;;;;;;;;;4914339;29;20575;-72
2023/12/06 10:59:38;;;;;;;8.88;6.95;;;;;;;;;;4916815;29;20040;-72
2023/12/06 11:02:04;;;;;;;10.23;7.75;;;;;;;;;;4916937;29;20064;-71
2023/12/06 11:04:36;;;;;;;10.25;7.95;;;;;;;;;;4915633;29;20070;-72
2023/12/06 11:07:11;;;;;;;12.68;8.40;;;;;;;;;;4910556;29;20048;-72
2023/12/06 11:09:43;;;;;;;10.52;7.65;;;;;;;;;;4916523;29;20107;-72
2023/12/06 11:12:28;;;;;;;10.50;8.48;;;;;;;;;;4912953;29;20052;-72
2023/12/06 11:14:55;;;;;;;12.40;8.30;;;;;;;;;;4913242;29;20407;-74
2023/12/06 11:17:30;;;;;;;14.48;9.63;;;;;;;;;;4914121;29;20047;-72
2023/12/06 11:19:59;;;;;;;13.73;10.52;;;;;;;;;;4917222;29;20047;-72
2023/12/06 11:22:25;;;;;;;14.80;11.82;;;;;;;;;;4914754;29;20111;-71
2023/12/06 11:24:52;;;;;;;16.02;12.10;;;;;;;;;;4905726;29;20044;-72
2023/12/06 11:27:20;;;;;;;14.63;11.30;;;;;;;;;;4910957;29;20044;-71
2023/12/06 11:29:46;;;;;;;10.93;9.07;;;;;;;;;;4916133;29;20094;-72
2023/12/06 11:32:15;;;;;;;11.80;9.07;;;;;;;;;;4909456;29;20036;-72
2023/12/06 11:34:41;;;;;;;13.10;9.20;;;;;;;;;;4911440;29;20131;-73
2023/12/06 11:37:17;;;;;;;14.00;10.05;;;;;;;;;;4912747;29;20096;-71
2023/12/06 11:40:04;;;;;;;11.77;9.65;;;;;;;;;;4913976;29;20044;-72
2023/12/06 11:42:30;;;;;;;13.00;10.10;;;;;;;;;;4887426;29;20372;-72
2023/12/06 11:45:02;;;;;;;14.60;9.55;;;;;;;;;;4930952;29;20106;-72
2023/12/06 11:47:28;;;;;;;13.85;10.02;;;;;;;;;;4899227;29;20058;-72
2023/12/06 11:49:54;;;;;;;12.48;9.52;;;;;;;;;;4911691;29;20044;-72
2023/12/06 11:52:20;;;;;;;14.18;8.85;;;;;;;;;;4912177;29;20051;-72
2023/12/06 11:54:46;;;;;;;13.40;8.77;;;;;;;;;;4912367;29;20563;-72
2023/12/06 11:57:14;;;;;;;11.10;9.20;;;;;;;;;;4919391;29;20151;-72
2023/12/06 11:59:41;;;;;;;15.32;9.10;;;;;;;;;;4935030;29;20449;-72
2023/12/06 12:02:11;;;;;;;10.05;9.00;;;;;;;;;;4917229;29;20103;-73
2023/12/06 12:04:37;;;;;;;11.15;8.10;;;;;;;;;;4917947;29;20389;-72
2023/12/06 12:07:03;;;;;;;8.63;7.22;;;;;;;;;;4918536;29;20062;-72
2023/12/06 12:09:30;;;;;;;8.77;6.35;;;;;;;;;;4914984;29;20051;-72
2023/12/06 12:11:59;;;;;;;7.40;6.05;;;;;;;;;;4899298;29;20044;-72
2023/12/06 12:14:32;;;;;;;6.70;5.40;;;;;;;;;;4918690;29;20059;-72
2023/12/06 12:16:58;;;;;;;7.05;5.75;;;;;;;;;;4918581;29;20044;-72
2023/12/06 12:19:27;;;;;;;7.90;5.88;;;;;;;;;;4914654;29;20055;-71
2023/12/06 12:22:00;;;;;;;6.07;5.47;;;;;;;;;;4913382;29;20079;-71
2023/12/06 12:24:27;;;;;;;5.85;5.25;;;;;;;;;;4930387;29;20043;-71
2023/12/06 12:26:55;;;;;;;5.30;4.80;;;;;;;;;;4918181;29;20076;-71
2023/12/06 12:29:21;;;;;;;5.43;4.93;;;;;;;;;;4922071;29;20679;-71
2023/12/06 12:31:47;;;;;;;5.93;5.32;;;;;;;;;;4916969;29;20047;-71
2023/12/06 12:34:13;;;;;;;5.40;4.80;;;;;;;;;;4922629;29;20119;-71
2023/12/06 12:36:40;;;;;;;7.25;5.20;;;;;;;;;;4904207;29;20055;-71
2023/12/06 12:39:08;;;;;;;6.65;5.43;;;;;;;;;;4918161;29;20047;-71
2023/12/06 12:41:35;;;;;;;7.65;5.43;;;;;;;;;;4915443;29;20075;-71
2023/12/06 12:44:01;;;;;;;6.45;5.82;;;;;;;;;;4915167;29;20040;-72
2023/12/06 12:46:27;;;;;;;6.53;5.78;;;;;;;;;;4933336;29;20064;-71
2023/12/06 12:48:53;;;;;;;8.80;6.30;;;;;;;;;;4917732;29;20051;-71
2023/12/06 12:51:19;;;;;;;9.07;6.57;;;;;;;;;;4916156;29;20055;-72
2023/12/06 12:53:46;;;;;;;8.68;6.78;;;;;;;;;;4905725;29;20048;-72
2023/12/06 12:56:18;;;;;;;9.25;6.88;;;;;;;;;;4922499;29;20409;-72
2023/12/06 12:58:46;;;;;;;8.85;6.50;;;;;;;;;;4916205;29;20134;-72
2023/12/06 13:01:15;;;;;;;9.43;7.10;;;;;;;;;;4915413;29;20039;-72
2023/12/06 13:03:42;;;;;;;9.65;6.95;;;;;;;;;;4913261;29;20064;-72
2023/12/06 13:06:09;;;;;;;7.07;6.20;;;;;;;;;;4917059;29;20051;-72
2023/12/06 13:08:38;;;;;;;8.23;6.40;;;;;;;;;;4918475;29;20055;-72
2023/12/06 13:11:04;;;;;;;9.93;6.93;;;;;;;;;;4932603;29;20047;-73
2023/12/06 13:13:30;;;;;;;7.35;6.03;;;;;;;;;;4931911;29;20051;-73
2023/12/06 13:15:56;;;;;;;7.68;6.20;;;;;;;;;;4933727;29;20400;-73
2023/12/06 13:18:23;;;;;;;8.82;6.65;;;;;;;;;;4916734;29;20055;-72
2023/12/06 13:20:50;;;;;;;8.30;6.65;;;;;;;;;;4932493;29;20044;-72
2023/12/06 13:23:16;;;;;;;8.45;7.10;;;;;;;;;;4918063;29;20088;-72
2023/12/06 13:25:42;;;;;;;9.55;7.97;;;;;;;;;;4916293;29;20044;-72
2023/12/06 13:28:09;;;;;;;9.07;7.53;;;;;;;;;;4929439;29;20213;-72
2023/12/06 13:30:35;;;;;;;10.70;7.47;;;;;;;;;;4904985;29;20052;-72
2023/12/06 13:33:05;;;;;;;9.23;6.85;;;;;;;;;;4915733;29;20048;-72
2023/12/06 13:35:31;;;;;;;8.68;6.20;;;;;;;;;;4917029;29;20047;-72
2023/12/06 13:37:58;;;;;;;9.93;6.53;;;;;;;;;;4933642;29;20051;-72
2023/12/06 13:40:25;;;;;;;9.50;7.07;;;;;;;;;;4931760;29;20055;-72
2023/12/06 13:42:51;;;;;;;9.77;6.40;;;;;;;;;;4915657;29;20095;-72
2023/12/06 13:45:17;;;;;;;8.57;6.57;;;;;;;;;;4915000;29;20044;-72
2023/12/06 13:47:43;;;;;;;10.10;6.47;;;;;;;;;;4910188;29;20051;-72
2023/12/06 13:50:09;;;;;;;7.80;7.00;;;;;;;;;;4910780;29;20051;-72
2023/12/06 13:52:35;;;;;;;11.23;7.70;;;;;;;;;;4911203;29;20424;-73
2023/12/06 13:55:04;;;;;;;12.48;7.75;;;;;;;;;;4915620;29;20086;-72
2023/12/06 13:57:30;;;;;;;11.82;7.30;;;;;;;;;;4912524;29;20059;-72
2023/12/06 13:59:56;;;;;;;10.98;7.90;;;;;;;;;;4918145;29;20044;-72
2023/12/06 14:02:23;;;;;;;11.23;8.15;;;;;;;;;;4907848;29;20044;-72
2023/12/06 14:04:49;;;;;;;9.98;7.47;;;;;;;;;;4928916;29;20051;-72
2023/12/06 14:07:15;;;;;;;11.32;7.75;;;;;;;;;;4915501;29;20099;-72
2023/12/06 14:09:41;;;;;;;10.65;7.57;;;;;;;;;;4915168;29;20055;-72
2023/12/06 14:12:07;;;;;;;10.25;7.68;;;;;;;;;;4928575;29;20400;-72
2023/12/06 14:14:33;;;;;;;14.02;8.25;;;;;;;;;;4927339;29;20055;-72
2023/12/06 14:16:59;;;;;;;13.82;8.93;;;;;;;;;;4915203;29;20043;-72
2023/12/06 14:19:25;;;;;;;12.35;9.05;;;;;;;;;;4915894;29;20217;-72
2023/12/06 14:21:52;;;;;;;14.45;9.65;;;;;;;;;;4931905;29;20138;-71
2023/12/06 14:24:18;;;;;;;13.23;9.23;;;;;;;;;;4931895;29;20050;-72
2023/12/06 14:26:47;;;;;;;12.30;9.75;;;;;;;;;;4929220;29;20047;-73
2023/12/06 14:29:13;;;;;;;9.00;7.80;;;;;;;;;;4915130;29;20078;-72